createdAt,value
2023-01-25T00:01:35.337Z,15.23
2023-01-25T00:04:01.470Z,15.57
2023-01-25T00:06:27.575Z,15.93
2023-01-25T00:08:53.920Z,15.33
2023-01-25T00:11:20.516Z,16.60
2023-01-25T00:13:47.265Z,15.30
2023-01-25T00:16:13.439Z,15.87
2023-01-25T00:18:39.629Z,14.90
2023-01-25T00:21:12.557Z,15.13
2023-01-25T00:23:38.669Z,15.80
2023-01-25T00:26:04.772Z,15.27
2023-01-25T00:28:30.891Z,14.97
2023-01-25T00:30:59.726Z,15.67
2023-01-25T00:33:40.059Z,15.80
2023-01-25T00:36:32.819Z,16.77
2023-01-25T00:38:58.995Z,16.23
2023-01-25T00:41:25.165Z,14.73
2023-01-25T00:43:51.296Z,16.80
2023-01-25T00:46:18.412Z,16.23
2023-01-25T00:48:44.582Z,16.07
2023-01-25T00:51:10.816Z,16.40
2023-01-25T00:53:37.241Z,16.97
2023-01-25T00:56:03.770Z,17.53
2023-01-25T00:58:30.206Z,16.40
2023-01-25T01:00:56.753Z,15.90
2023-01-25T01:03:23.819Z,14.17
2023-01-25T01:05:59.247Z,15.47
2023-01-25T01:08:25.366Z,16.03
2023-01-25T01:10:51.488Z,15.50
2023-01-25T01:13:17.591Z,14.90
2023-01-25T01:15:43.721Z,16.03
2023-01-25T01:18:09.872Z,14.37
2023-01-25T01:20:36.615Z,13.90
2023-01-25T01:23:02.761Z,14.47
2023-01-25T01:25:28.909Z,15.73
2023-01-25T01:27:55.021Z,15.00
2023-01-25T01:30:21.173Z,14.77
2023-01-25T01:32:47.386Z,14.97
2023-01-25T01:35:13.835Z,15.33
2023-01-25T01:37:42.469Z,14.90
2023-01-25T01:40:13.898Z,15.37
2023-01-25T01:42:58.612Z,14.57
2023-01-25T01:45:51.589Z,15.80
2023-01-25T01:48:21.151Z,14.37
2023-01-25T01:50:51.943Z,14.80
2023-01-25T01:53:19.406Z,15.23
2023-01-25T01:55:45.581Z,15.53
2023-01-25T01:58:11.769Z,14.23
2023-01-25T02:00:39.495Z,15.03
2023-01-25T02:03:06.037Z,15.77
2023-01-25T02:05:37.581Z,17.47
2023-01-25T02:08:05.230Z,17.77
2023-01-25T02:10:32.513Z,16.53
2023-01-25T02:12:58.816Z,16.57
2023-01-25T02:15:27.790Z,15.73
2023-01-25T02:17:54.045Z,15.67
2023-01-25T02:20:27.515Z,14.97
2023-01-25T02:22:58.823Z,15.33
2023-01-25T02:25:26.165Z,15.97
2023-01-25T02:27:54.828Z,16.73
2023-01-25T02:30:21.530Z,15.23
2023-01-25T02:32:47.660Z,15.40
2023-01-25T02:35:18.824Z,16.43
2023-01-25T02:37:45.141Z,16.33
2023-01-25T02:40:11.909Z,17.47
2023-01-25T02:42:41.526Z,16.27
2023-01-25T02:45:09.950Z,16.33
2023-01-25T02:47:36.113Z,16.23
2023-01-25T02:50:02.401Z,16.03
2023-01-25T02:52:28.765Z,15.40
2023-01-25T02:54:54.905Z,15.90
2023-01-25T02:57:23.137Z,15.53
2023-01-25T02:59:49.949Z,17.20
2023-01-25T03:02:16.224Z,15.77
2023-01-25T03:04:42.365Z,15.67
2023-01-25T03:07:08.505Z,16.43
2023-01-25T03:09:36.120Z,17.83
2023-01-25T03:12:02.201Z,16.97
2023-01-25T03:14:28.308Z,15.60
2023-01-25T03:16:55.077Z,16.80
2023-01-25T03:19:21.197Z,17.80
2023-01-25T03:21:47.305Z,17.47
2023-01-25T03:24:13.500Z,16.37
2023-01-25T03:26:54.293Z,15.67
2023-01-25T03:29:20.421Z,17.57
2023-01-25T03:31:46.657Z,16.77
2023-01-25T03:34:13.417Z,16.77
2023-01-25T03:36:39.570Z,16.07
2023-01-25T03:39:05.701Z,16.77
2023-01-25T03:41:31.910Z,15.70
2023-01-25T03:43:58.028Z,15.30
2023-01-25T03:46:25.414Z,16.40
2023-01-25T03:48:51.716Z,13.60
2023-01-25T03:51:18.473Z,13.90
2023-01-25T03:53:44.753Z,15.47
2023-01-25T03:56:16.745Z,16.43
2023-01-25T03:58:42.862Z,16.87
2023-01-25T04:01:09.180Z,16.43
2023-01-25T04:03:35.391Z,16.50
2023-01-25T04:06:01.747Z,16.30
2023-01-25T04:08:28.764Z,15.27
2023-01-25T04:10:55.945Z,16.07
2023-01-25T04:13:23.559Z,18.43
2023-01-25T04:15:49.709Z,18.10
2023-01-25T04:18:16.055Z,16.60
2023-01-25T04:20:43.151Z,17.60
2023-01-25T04:23:09.933Z,16.67
2023-01-25T04:25:36.935Z,16.23
2023-01-25T04:28:03.754Z,16.80
2023-01-25T04:30:30.043Z,18.57
2023-01-25T04:32:56.161Z,20.17
2023-01-25T04:35:22.256Z,19.73
2023-01-25T04:37:53.126Z,17.37
2023-01-25T04:40:19.259Z,18.03
2023-01-25T04:42:46.000Z,18.33
2023-01-25T04:45:12.383Z,19.53
2023-01-25T04:47:38.568Z,19.80
2023-01-25T04:50:06.501Z,17.67
2023-01-25T04:52:33.495Z,16.70
2023-01-25T04:54:59.624Z,18.93
2023-01-25T04:57:25.781Z,19.10
2023-01-25T04:59:52.538Z,20.20
2023-01-25T05:02:18.699Z,21.73
2023-01-25T05:04:44.947Z,18.93
2023-01-25T05:07:11.066Z,18.60
2023-01-25T05:09:37.229Z,20.03
2023-01-25T05:12:05.017Z,21.30
2023-01-25T05:14:31.233Z,20.63
2023-01-25T05:16:58.069Z,20.13
2023-01-25T05:19:24.286Z,21.73
2023-01-25T05:21:59.268Z,22.47
2023-01-25T05:24:25.572Z,26.17
2023-01-25T05:27:00.609Z,24.20
2023-01-25T05:29:27.265Z,24.47
2023-01-25T05:31:53.602Z,24.43
2023-01-25T05:34:20.410Z,24.23
2023-01-25T05:36:46.531Z,25.67
2023-01-25T05:39:12.678Z,25.33
2023-01-25T05:41:38.810Z,22.47
2023-01-25T05:44:04.949Z,22.97
2023-01-25T05:46:31.335Z,23.47
2023-01-25T05:48:57.441Z,26.03
2023-01-25T05:51:24.338Z,24.83
2023-01-25T05:53:50.679Z,25.50
2023-01-25T05:56:16.781Z,27.10
2023-01-25T05:58:43.015Z,25.30
2023-01-25T06:01:09.206Z,23.97
2023-01-25T06:03:35.415Z,24.07
2023-01-25T06:06:02.181Z,23.83
2023-01-25T06:08:29.649Z,24.47
2023-01-25T06:10:55.895Z,25.13
2023-01-25T06:13:22.503Z,25.30
2023-01-25T06:15:51.863Z,24.33
2023-01-25T06:18:18.104Z,24.23
2023-01-25T06:20:44.363Z,25.27
2023-01-25T06:23:11.551Z,22.73
2023-01-25T06:25:38.306Z,23.30
2023-01-25T06:28:04.643Z,25.07
2023-01-25T06:30:31.004Z,28.40
2023-01-25T06:32:57.646Z,27.23
2023-01-25T06:35:23.813Z,27.83
2023-01-25T06:37:49.932Z,27.73
2023-01-25T06:40:16.629Z,28.57
2023-01-25T06:42:44.479Z,27.93
2023-01-25T06:45:11.681Z,27.97
2023-01-25T06:47:38.696Z,27.30
2023-01-25T06:50:05.703Z,28.10
2023-01-25T06:52:35.537Z,28.00
2023-01-25T06:55:01.712Z,24.87
2023-01-25T06:57:28.595Z,24.40
2023-01-25T06:59:55.570Z,25.10
2023-01-25T07:02:22.419Z,24.67
2023-01-25T07:04:48.585Z,24.60
2023-01-25T07:07:14.729Z,26.27
2023-01-25T07:09:40.854Z,26.93
2023-01-25T07:12:07.104Z,25.40
2023-01-25T07:14:33.271Z,25.67
2023-01-25T07:17:02.783Z,26.23
2023-01-25T07:19:29.138Z,25.80
2023-01-25T07:21:55.318Z,25.80
2023-01-25T07:24:26.151Z,27.43
2023-01-25T07:26:52.321Z,27.83
2023-01-25T07:29:18.413Z,26.40
2023-01-25T07:31:44.606Z,24.37
2023-01-25T07:34:12.566Z,26.87
2023-01-25T07:36:39.205Z,26.33
2023-01-25T07:39:05.345Z,25.10
2023-01-25T07:41:31.958Z,27.93
2023-01-25T07:43:58.112Z,29.37
2023-01-25T07:46:24.247Z,27.87
2023-01-25T07:48:51.849Z,27.97
2023-01-25T07:51:23.100Z,27.77
2023-01-25T07:53:50.771Z,26.03
2023-01-25T07:56:17.895Z,26.53
2023-01-25T07:58:44.058Z,28.40
2023-01-25T08:01:11.703Z,26.43
2023-01-25T08:03:37.948Z,26.37
2023-01-25T08:06:04.740Z,27.07
2023-01-25T08:08:33.705Z,27.37
2023-01-25T08:11:00.294Z,27.07
2023-01-25T08:13:26.414Z,27.03
2023-01-25T08:15:53.295Z,26.93
2023-01-25T08:18:19.399Z,27.47
2023-01-25T08:20:45.500Z,27.20
2023-01-25T08:23:11.649Z,28.33
2023-01-25T08:25:38.711Z,28.73
2023-01-25T08:28:05.287Z,26.07
2023-01-25T08:30:31.405Z,26.67
2023-01-25T08:32:57.514Z,26.40
2023-01-25T08:35:23.630Z,27.43
2023-01-25T08:37:49.751Z,27.43
2023-01-25T08:40:16.335Z,26.90
2023-01-25T08:42:43.082Z,28.27
2023-01-25T08:45:10.418Z,27.80
2023-01-25T08:47:36.780Z,26.97
2023-01-25T08:50:03.576Z,26.97
2023-01-25T08:52:29.702Z,26.07
2023-01-25T08:54:56.026Z,27.97
2023-01-25T08:57:22.154Z,28.53
2023-01-25T08:59:48.895Z,29.93
2023-01-25T09:02:15.016Z,29.90
2023-01-25T09:04:41.119Z,28.60
2023-01-25T09:07:07.230Z,29.13
2023-01-25T09:09:33.364Z,30.37
2023-01-25T09:11:59.457Z,29.77
2023-01-25T09:14:25.928Z,30.63
2023-01-25T09:16:52.645Z,30.77
2023-01-25T09:19:18.808Z,29.80
2023-01-25T09:21:45.391Z,29.30
2023-01-25T09:24:11.628Z,29.33
2023-01-25T09:26:39.386Z,31.47
2023-01-25T09:29:06.955Z,30.23
2023-01-25T09:31:33.208Z,29.17
2023-01-25T09:34:00.314Z,29.30
2023-01-25T09:36:26.468Z,28.20
2023-01-25T09:38:52.957Z,29.67
2023-01-25T09:41:36.043Z,29.97
2023-01-25T09:44:15.464Z,29.23
2023-01-25T09:46:43.440Z,29.20
2023-01-25T09:49:24.887Z,28.67
2023-01-25T09:52:02.844Z,29.17
2023-01-25T09:54:31.711Z,29.60
2023-01-25T09:56:58.687Z,29.67
2023-01-25T09:59:29.770Z,29.33
2023-01-25T10:01:58.380Z,27.27
2023-01-25T10:04:26.854Z,29.30
2023-01-25T10:07:01.327Z,28.90
2023-01-25T10:09:34.469Z,28.47
2023-01-25T10:12:11.890Z,29.13
2023-01-25T10:14:38.044Z,29.93
2023-01-25T10:17:08.199Z,29.83
2023-01-25T10:19:46.060Z,29.17
2023-01-25T10:22:15.151Z,30.40
2023-01-25T10:24:51.908Z,30.57
2023-01-25T10:27:24.860Z,28.83
2023-01-25T10:29:52.531Z,26.90
2023-01-25T10:32:20.251Z,30.13
2023-01-25T10:34:56.251Z,27.63
2023-01-25T10:37:26.468Z,28.03
2023-01-25T10:39:57.282Z,25.20
2023-01-25T10:42:26.204Z,27.30
2023-01-25T10:44:52.445Z,29.07
2023-01-25T10:47:23.145Z,26.80
2023-01-25T10:49:51.028Z,28.80
2023-01-25T10:52:18.692Z,26.77
2023-01-25T10:54:49.435Z,26.77
2023-01-25T10:57:18.874Z,27.57
2023-01-25T10:59:46.575Z,26.13
2023-01-25T11:02:40.411Z,25.60
2023-01-25T11:05:25.912Z,24.90
2023-01-25T11:07:52.345Z,26.93
2023-01-25T11:10:29.944Z,26.23
2023-01-25T11:13:18.836Z,25.60
2023-01-25T11:15:46.450Z,24.43
2023-01-25T11:18:13.783Z,25.23
2023-01-25T11:20:40.531Z,27.83
2023-01-25T11:23:21.258Z,28.13
2023-01-25T11:25:47.421Z,29.20
2023-01-25T11:28:19.234Z,27.50
2023-01-25T11:30:46.041Z,27.93
2023-01-25T11:33:13.822Z,27.33
2023-01-25T11:35:52.444Z,26.87
2023-01-25T11:38:21.813Z,27.60
2023-01-25T11:40:50.248Z,28.47
2023-01-25T11:43:25.502Z,31.47
2023-01-25T11:46:01.962Z,31.47
2023-01-25T11:48:42.712Z,28.87
2023-01-25T11:51:13.213Z,26.17
2023-01-25T11:54:04.518Z,26.60
2023-01-25T11:56:39.225Z,27.93
2023-01-25T11:59:17.940Z,28.07
2023-01-25T12:01:57.756Z,26.73
2023-01-25T12:04:50.227Z,25.97
2023-01-25T12:07:22.114Z,27.50
2023-01-25T12:10:04.295Z,28.27
2023-01-25T12:12:39.841Z,30.93
2023-01-25T12:15:16.789Z,27.00
2023-01-25T12:17:55.192Z,26.03
2023-01-25T12:20:31.315Z,27.93
2023-01-25T12:23:25.465Z,27.60
2023-01-25T12:26:00.844Z,25.73
2023-01-25T12:28:28.963Z,27.33
2023-01-25T12:30:57.732Z,26.13
2023-01-25T12:33:28.440Z,25.57
2023-01-25T12:35:59.448Z,25.20
2023-01-25T12:38:29.745Z,25.07
2023-01-25T12:40:59.137Z,25.00
2023-01-25T12:43:28.573Z,28.43
2023-01-25T12:45:56.309Z,27.07
2023-01-25T12:48:26.620Z,27.03
2023-01-25T12:50:55.435Z,28.17
2023-01-25T12:53:24.972Z,25.27
2023-01-25T12:55:52.246Z,25.47
2023-01-25T12:58:37.124Z,23.17
2023-01-25T13:01:11.187Z,24.60
2023-01-25T13:03:47.351Z,24.00
2023-01-25T13:06:18.830Z,24.80
2023-01-25T13:08:52.989Z,24.80
2023-01-25T13:11:22.214Z,24.17
2023-01-25T13:13:48.629Z,25.13
2023-01-25T13:16:34.882Z,24.60
2023-01-25T13:19:01.060Z,21.63
2023-01-25T13:21:44.234Z,21.97
2023-01-25T13:24:16.436Z,24.23
2023-01-25T13:26:57.160Z,24.87
2023-01-25T13:29:56.870Z,24.40
2023-01-25T13:33:06.439Z,25.77
2023-01-25T13:35:40.924Z,23.73
2023-01-25T13:38:28.889Z,24.87
2023-01-25T13:41:12.405Z,25.10
2023-01-25T13:43:41.399Z,25.73
2023-01-25T13:46:10.068Z,28.30
2023-01-25T13:48:48.254Z,24.00
2023-01-25T13:51:16.825Z,24.23
2023-01-25T13:53:54.757Z,25.67
2023-01-25T13:56:32.241Z,26.77
2023-01-25T13:58:59.398Z,27.17
2023-01-25T14:01:26.546Z,24.90
2023-01-25T14:03:55.805Z,25.73
2023-01-25T14:06:24.315Z,25.60
2023-01-25T14:08:51.176Z,25.00
2023-01-25T14:11:19.049Z,26.03
2023-01-25T14:13:55.625Z,26.97
2023-01-25T14:16:22.602Z,25.23
2023-01-25T14:18:48.865Z,27.07
2023-01-25T14:21:16.665Z,25.40
2023-01-25T14:23:43.051Z,24.83
2023-01-25T14:26:17.170Z,25.43
2023-01-25T14:28:51.246Z,25.63
2023-01-25T14:31:28.353Z,26.10
2023-01-25T14:33:57.693Z,26.97
2023-01-25T14:36:26.851Z,26.00
2023-01-25T14:38:53.346Z,25.90
2023-01-25T14:41:21.042Z,25.67
2023-01-25T14:43:48.912Z,26.17
2023-01-25T14:46:27.643Z,27.63
2023-01-25T14:49:15.071Z,28.17
2023-01-25T14:51:43.665Z,27.77
2023-01-25T14:54:16.180Z,27.23
2023-01-25T14:56:43.265Z,26.37
2023-01-25T14:59:21.949Z,23.67
2023-01-25T15:01:50.536Z,23.97
2023-01-25T15:04:16.675Z,24.00
2023-01-25T15:06:45.395Z,26.20
2023-01-25T15:09:30.283Z,25.87
2023-01-25T15:11:59.367Z,26.33
2023-01-25T15:14:26.629Z,25.47
2023-01-25T15:16:55.060Z,25.00
2023-01-25T15:19:28.237Z,24.47
2023-01-25T15:21:55.834Z,27.50
2023-01-25T15:24:22.799Z,26.90
2023-01-25T15:26:50.972Z,26.03
2023-01-25T15:29:20.100Z,27.03
2023-01-25T15:31:46.848Z,24.40
2023-01-25T15:34:15.019Z,25.70
2023-01-25T15:36:41.179Z,27.00
2023-01-25T15:39:11.483Z,28.10
2023-01-25T15:41:37.628Z,29.27
2023-01-25T15:44:03.741Z,26.80
2023-01-25T15:46:31.005Z,26.00
2023-01-25T15:48:57.142Z,25.20
2023-01-25T15:51:23.955Z,25.63
2023-01-25T15:53:50.090Z,25.77
2023-01-25T15:56:17.917Z,26.50
2023-01-25T15:58:45.809Z,26.03
2023-01-25T16:01:12.098Z,25.27
2023-01-25T16:03:40.683Z,23.53
2023-01-25T16:06:30.258Z,25.73
2023-01-25T16:08:57.995Z,24.33
2023-01-25T16:11:24.258Z,25.43
2023-01-25T16:13:50.493Z,24.80
2023-01-25T16:16:17.993Z,24.40
2023-01-25T16:18:44.238Z,21.77
2023-01-25T16:21:12.413Z,23.60
2023-01-25T16:23:39.656Z,23.27
2023-01-25T16:26:13.274Z,22.60
2023-01-25T16:28:39.382Z,22.10
2023-01-25T16:31:05.880Z,22.77
2023-01-25T16:33:32.018Z,22.93
2023-01-25T16:36:04.050Z,23.00
2023-01-25T16:38:30.172Z,23.63
2023-01-25T16:40:56.890Z,23.77
2023-01-25T16:43:25.218Z,23.30
2023-01-25T16:45:55.937Z,24.17
2023-01-25T16:48:22.074Z,24.47
2023-01-25T16:50:49.298Z,24.07
2023-01-25T16:53:15.470Z,24.00
2023-01-25T16:55:41.651Z,21.50
2023-01-25T16:58:08.438Z,21.67
2023-01-25T17:00:34.567Z,21.63
2023-01-25T17:03:00.767Z,21.07
2023-01-25T17:05:33.905Z,20.20
2023-01-25T17:08:00.037Z,20.80
2023-01-25T17:10:26.159Z,20.67
2023-01-25T17:12:52.244Z,21.20
2023-01-25T17:15:20.155Z,23.10
2023-01-25T17:17:46.327Z,26.60
2023-01-25T17:20:12.656Z,23.43
2023-01-25T17:22:39.720Z,22.10
2023-01-25T17:25:06.363Z,21.97
2023-01-25T17:27:32.466Z,23.27
2023-01-25T17:29:58.594Z,21.23
2023-01-25T17:32:25.345Z,22.60
2023-01-25T17:34:52.912Z,22.87
2023-01-25T17:37:19.034Z,20.47
2023-01-25T17:39:45.346Z,22.07
2023-01-25T17:42:13.709Z,20.37
2023-01-25T17:44:39.826Z,22.03
2023-01-25T17:47:05.939Z,21.37
2023-01-25T17:49:32.661Z,19.37
2023-01-25T17:51:58.745Z,19.40
2023-01-25T17:54:24.871Z,20.27
2023-01-25T17:56:50.977Z,19.60
2023-01-25T17:59:17.137Z,23.97
2023-01-25T18:01:43.312Z,21.70
2023-01-25T18:04:10.087Z,20.77
2023-01-25T18:06:36.870Z,21.27
2023-01-25T18:09:05.231Z,18.40
2023-01-25T18:11:32.835Z,18.17
2023-01-25T18:14:01.338Z,18.97
2023-01-25T18:16:29.805Z,17.83
2023-01-25T18:18:58.356Z,17.17
2023-01-25T18:21:26.368Z,16.27
2023-01-25T18:23:55.242Z,17.73
2023-01-25T18:26:23.164Z,19.63
2023-01-25T18:28:51.829Z,20.07
2023-01-25T18:31:18.364Z,20.00
2023-01-25T18:33:44.542Z,20.27
2023-01-25T18:36:13.440Z,19.93
2023-01-25T18:38:39.737Z,18.37
2023-01-25T18:41:07.388Z,19.50
2023-01-25T18:43:33.653Z,20.10
2023-01-25T18:45:59.905Z,20.40
2023-01-25T18:48:30.035Z,19.93
2023-01-25T18:50:57.277Z,21.73
2023-01-25T18:53:25.006Z,19.43
2023-01-25T18:55:58.818Z,19.70
2023-01-25T18:58:25.600Z,20.43
2023-01-25T19:01:00.481Z,21.27
2023-01-25T19:03:26.600Z,21.73
2023-01-25T19:05:52.716Z,21.47
2023-01-25T19:08:19.207Z,21.97
2023-01-25T19:10:45.337Z,23.00
2023-01-25T19:13:11.430Z,23.57
2023-01-25T19:15:38.171Z,23.60
2023-01-25T19:18:04.358Z,24.37
2023-01-25T19:20:30.466Z,26.10
2023-01-25T19:22:56.564Z,23.80
2023-01-25T19:25:23.415Z,25.57
2023-01-25T19:27:49.525Z,26.87
2023-01-25T19:30:15.733Z,26.37
2023-01-25T19:32:42.496Z,25.03
2023-01-25T19:35:09.437Z,26.60
2023-01-25T19:37:35.812Z,25.50
2023-01-25T19:40:01.959Z,24.20
2023-01-25T19:42:28.118Z,24.50
2023-01-25T19:44:54.594Z,26.57
2023-01-25T19:47:20.763Z,26.43
2023-01-25T19:49:47.512Z,26.20
2023-01-25T19:52:13.625Z,25.60
2023-01-25T19:54:39.742Z,26.30
2023-01-25T19:57:05.845Z,26.53
2023-01-25T19:59:32.212Z,25.70
2023-01-25T20:01:58.410Z,26.60
2023-01-25T20:04:24.624Z,28.20
2023-01-25T20:06:51.585Z,24.37
2023-01-25T20:09:19.252Z,24.40
2023-01-25T20:11:46.442Z,24.17
2023-01-25T20:14:13.098Z,25.13
2023-01-25T20:16:39.508Z,24.07
2023-01-25T20:19:06.089Z,22.87
2023-01-25T20:21:33.007Z,22.03
2023-01-25T20:24:03.585Z,21.90
2023-01-25T20:26:31.865Z,21.70
2023-01-25T20:28:58.685Z,22.03
2023-01-25T20:31:26.394Z,21.70
2023-01-25T20:33:54.148Z,22.77
2023-01-25T20:36:20.624Z,21.67
2023-01-25T20:38:46.900Z,21.37
2023-01-25T20:41:15.453Z,21.20
2023-01-25T20:43:45.161Z,22.37
2023-01-25T20:46:11.285Z,22.97
2023-01-25T20:48:37.394Z,23.57
2023-01-25T20:51:04.975Z,22.73
2023-01-25T20:53:31.414Z,21.73
2023-01-25T20:55:57.839Z,22.33
2023-01-25T20:58:24.791Z,23.23
2023-01-25T21:00:50.907Z,21.87
2023-01-25T21:03:17.066Z,22.10
2023-01-25T21:05:48.762Z,21.20
2023-01-25T21:08:14.889Z,21.07
2023-01-25T21:10:46.990Z,21.07
2023-01-25T21:13:13.116Z,21.43
2023-01-25T21:15:39.908Z,23.83
2023-01-25T21:18:06.007Z,23.73
2023-01-25T21:20:32.172Z,22.40
2023-01-25T21:22:58.265Z,22.93
2023-01-25T21:25:24.374Z,21.93
2023-01-25T21:27:52.576Z,20.67
2023-01-25T21:30:18.734Z,21.20
2023-01-25T21:32:45.486Z,21.07
2023-01-25T21:35:11.902Z,20.40
2023-01-25T21:37:38.270Z,20.27
2023-01-25T21:40:05.251Z,22.33
2023-01-25T21:42:32.442Z,22.83
2023-01-25T21:45:16.940Z,22.00
2023-01-25T21:47:43.041Z,22.50
2023-01-25T21:50:28.479Z,23.00
2023-01-25T21:52:54.615Z,22.63
2023-01-25T21:55:20.703Z,23.27
2023-01-25T21:57:47.393Z,22.70
2023-01-25T22:00:15.456Z,23.80
2023-01-25T22:02:42.237Z,21.97
2023-01-25T22:05:09.559Z,23.53
2023-01-25T22:07:35.684Z,24.93
2023-01-25T22:10:01.858Z,23.83
2023-01-25T22:12:28.091Z,23.73
2023-01-25T22:14:54.374Z,24.07
2023-01-25T22:17:21.760Z,26.73
2023-01-25T22:19:47.903Z,25.43
2023-01-25T22:22:14.655Z,25.17
2023-01-25T22:24:40.781Z,26.90
2023-01-25T22:27:26.984Z,26.67
2023-01-25T22:29:53.087Z,26.67
2023-01-25T22:32:19.186Z,27.00
2023-01-25T22:34:45.310Z,28.03
2023-01-25T22:37:11.546Z,27.77
2023-01-25T22:39:38.417Z,27.90
2023-01-25T22:42:04.657Z,26.83
2023-01-25T22:44:30.757Z,26.73
2023-01-25T22:46:56.872Z,27.00
2023-01-25T22:49:22.980Z,27.00
2023-01-25T22:51:49.157Z,27.17
2023-01-25T22:54:15.263Z,27.77
2023-01-25T22:56:42.124Z,29.00
2023-01-25T22:59:10.733Z,28.00
2023-01-25T23:01:36.877Z,29.37
2023-01-25T23:04:03.167Z,28.90
2023-01-25T23:06:33.209Z,29.33
2023-01-25T23:09:00.866Z,30.60
2023-01-25T23:11:31.289Z,27.63
2023-01-25T23:14:16.798Z,29.63
2023-01-25T23:16:43.567Z,29.93
2023-01-25T23:19:09.710Z,30.60
2023-01-25T23:21:36.211Z,30.60
2023-01-25T23:24:03.413Z,32.60
2023-01-25T23:26:36.567Z,34.57
2023-01-25T23:29:05.564Z,32.23
2023-01-25T23:31:31.916Z,33.70
2023-01-25T23:34:00.455Z,31.73
2023-01-25T23:36:27.803Z,32.47
2023-01-25T23:38:54.745Z,34.23
2023-01-25T23:41:22.176Z,34.97
2023-01-25T23:43:49.387Z,33.70
2023-01-25T23:46:16.590Z,35.57
2023-01-25T23:48:43.662Z,34.37
2023-01-25T23:51:10.801Z,35.43
2023-01-25T23:53:37.657Z,35.53
2023-01-25T23:56:05.611Z,34.50
2023-01-25T23:58:33.567Z,34.57
